Home   Weather   Youraling   Past weeks
Flag for Australia

Past Weather in Youraling, Western Australia, Australia — Yesterday and Last 2 Weeks

Currently: 61 °F. Passing clouds. (Weather station: Belmont Perth Airport, Australia). See more current weather

Past Weather in Youraling — Graph

°F

Youraling Temperature Yesterday

Maximum temperature yesterday: 68 °F (at 2:30 pm)
Minimum temperature yesterday: 54 °F (at 7:00 am)
Average temperature yesterday: 60 °F

High & Low Weather Summary for the Past Weeks

 TemperatureHumidityPressure
High73 °F (Jul 16, 2:30 pm)100% (Jul 8, 12:00 am)30.27 "Hg (Jul 8, 12:00 am)
Low43 °F (Jul 15, 6:30 am)33% (Jul 17, 12:30 pm)29.80 "Hg (Jul 9, 4:30 am)
Average58 °F74%30.08 "Hg
* Reported Jul 7 8:00 pm — Jul 22 8:30 pm, Youraling. Weather by CustomWeather, © 2024

Note: Actual official high and low records may vary slightly from our data, if they occured in-between our weather recording intervals... More about our weather records

Youraling Weather History for the Previous 24 Hours

Scroll right to see more
 ConditionsComfort  
Time TempWeatherWind HumidityBarometerVisibility
8:30 pm
Mon, Jul 22
61 °FPartly cloudy.8 mph77%29.89 "HgN/A
8:00 pm63 °FClear.10 mph73%29.89 "Hg10 mi
7:30 pm63 °FPartly cloudy.10 mph73%29.89 "HgN/A
7:00 pm63 °FPassing clouds.10 mph73%29.89 "HgN/A
6:30 pm64 °FPassing clouds.13 mph73%29.89 "HgN/A
6:00 pm63 °FScattered showers. Partly cloudy.13 mph77%29.89 "HgN/A
5:30 pm63 °FScattered showers. Broken clouds.13 mph77%29.89 "HgN/A
5:01 pm64 °FSprinkles. Broken clouds.17 mph73%29.92 "HgN/A
4:30 pm64 °FScattered clouds.14 mph73%29.92 "HgN/A
4:00 pm64 °FScattered clouds.13 mph78%29.92 "HgN/A
3:00 pm66 °FScattered showers. Broken clouds.16 mph68%29.92 "HgN/A
2:30 pm66 °FSprinkles. Partly sunny.18 mph64%29.92 "HgN/A
2:00 pm68 °FScattered clouds.22 mph60%29.95 "HgN/A
1:30 pm68 °FScattered clouds.18 mph60%29.95 "HgN/A
1:00 pm66 °FBroken clouds.16 mph64%29.98 "HgN/A
12:30 pm68 °FScattered clouds.21 mph56%29.98 "HgN/A
12:00 pm66 °FScattered showers. Partly sunny.21 mph60%29.98 "HgN/A
11:30 am66 °FSprinkles. Broken clouds.16 mph56%30.01 "HgN/A
11:00 am66 °FPartly sunny.16 mph52%30.01 "HgN/A
10:30 am66 °FScattered clouds.16 mph52%30.04 "HgN/A
10:00 am63 °FScattered clouds.15 mph52%30.04 "HgN/A
9:00 am59 °FSunny.14 mph59%30.04 "Hg10 mi
8:30 am57 °FScattered clouds.15 mph63%30.04 "HgN/A
8:00 am55 °FScattered clouds.15 mph67%30.04 "HgN/A
7:30 am55 °FPartly sunny.13 mph67%30.04 "HgN/A
7:00 am55 °FPassing clouds.12 mph72%30.04 "HgN/A
6:30 am55 °FClear.12 mph72%30.04 "Hg10 mi
6:00 am54 °FClear.10 mph77%30.04 "Hg10 mi
5:30 am54 °FClear.10 mph77%30.04 "Hg10 mi
5:00 am54 °FClear.10 mph77%30.04 "Hg10 mi
4:30 am55 °FClear.10 mph72%30.04 "Hg10 mi
4:00 am55 °FClear.10 mph72%30.04 "Hg10 mi
3:30 am57 °FPassing clouds.12 mph72%30.07 "HgN/A
3:00 am57 °FPassing clouds.10 mph77%30.07 "HgN/A
2:30 am57 °FClear.10 mph77%30.07 "Hg10 mi
2:00 am59 °FPassing clouds.12 mph77%30.07 "HgN/A
1:30 am59 °FPassing clouds.9 mph77%30.09 "HgN/A
1:00 am59 °FClear.9 mph77%30.09 "Hg10 mi
12:30 am59 °FPassing clouds.8 mph77%30.09 "HgN/A
12:00 am59 °FPartly cloudy.16 mph77%30.12 "HgN/A
11:30 pm
Sun, Jul 21
59 °FScattered showers. Passing clouds.9 mph77%30.12 "HgN/A
11:00 pm59 °FPassing clouds.8 mph77%30.12 "HgN/A
10:30 pm59 °FPassing clouds.8 mph77%30.12 "HgN/A
10:00 pm59 °FPassing clouds.10 mph72%30.12 "HgN/A
Weather by CustomWeather, © 2024

See weather overview